x

La Perouse Bank (46206) Wave Buoy

5:00am - Sat 10th Dec 2016 All times are PST. -8 hours from GMT.

  • Sig Wave height 8.5ft
  • Peak Period 11s
  • Wind
    16mph, 27mph gusts
  • Sea Temp 56°f
  • 空気 Temp 46°f
  • Sea Pressure 1005.8mb
  • La Perouse Bank
  • La Perouse Bank

More Historic Weather Station data

Upgrade to MSW Pro to gain access to the past 30 days of data for over 8000 Wavebouys and Weather Stations around the globe.

Join Pro

Comparision Forecast

View Surf forecast
   
Sat 12/10 5:00am 8.5ft 11s 16 27 mph 1005.8mb 56f 46f
4:00am 8ft 12s 18 27 mph 1006.3mb 56f 45f
3:00am 9ft 12s 18 25 mph 1006.4mb 56f 45f
2:00am 9.5ft 10s 13 18 mph 1007.2mb 56f 45f
1:00am 11ft 10s 9 13 mph 1007.2mb 56f 45f
12:00am 12ft 11s 11 20 mph 1007mb 56f 46f
Fri 12/09 11:00pm 12ft 11s 11 16 mph 1006.9mb 56f 47f
10:00pm  -   -  13
mph
- - -
9:00pm 13ft 11s 13 20 mph 1006.2mb 56f 47f
8:00pm 13.5ft 11s 13 18 mph 1006mb 56f 46f
7:00pm 13.5ft 10s 20 34 mph 1005.7mb 56f 47f
6:00pm 12ft 12s 11 16 mph 1006mb 56f 46f
5:00pm 12.5ft 12s 16 20 mph 1006.1mb 56f 47f
4:00pm 12ft 11s 13 22 mph 1007.1mb 56f 45f
3:00pm 11.5ft 10s 18 25 mph 1007.5mb 56f 46f
2:00pm 11.5ft 11s 18 22 mph 1008.4mb 57f 46f
1:00pm 12ft 11s 16 20 mph 1009mb 57f 46f
11:00am 13ft 11s 25 40 mph 1009.1mb 57f 45f
10:00am 12.5ft 7s 27 34 mph 1010mb 57f 44f
9:00am 10ft 7s 29 38 mph 1009.5mb 57f 44f
8:00am 10ft 7s 31 38 mph 1009.4mb 56f 43f
7:00am 10.5ft 8s 31 40 mph 1009.3mb 56f 43f
6:00am 11ft 7s 31 38 mph 1008.9mb 56f 42f
5:00am 11.5ft 8s 31 38 mph 1008.9mb 56f 41f
4:00am 11ft 8s 34 40 mph 1008.5mb 56f 41f
3:00am 10ft 7s 34 43 mph 1009mb 56f 40f
2:00am 10.5ft 8s 36 47 mph 1008.9mb 56f 39f
1:00am  -   -  36
mph
- - -
12:00am 12ft 8s 36 45 mph 1009.3mb 56f 38f
Thu 12/08 11:00pm 11ft 7s 36 45 mph 1009.2mb 56f 39f
10:00pm 11ft 7s 36 43 mph 1009.1mb 56f 38f
9:00pm 10.5ft 8s 36 47 mph 1008.7mb 56f 40f
8:00pm 10ft 7s 36 43 mph 1008mb 56f 43f
7:00pm 9ft 7s 36 45 mph 1008.2mb 55f 42f
6:00pm 9ft 6s 36 43 mph 1008.5mb 56f 42f
5:00pm 10ft 6s 34 45 mph 1009mb 56f 42f
4:00pm 9ft 7s 34 40 mph 1009.6mb 56f 42f
3:00pm 9ft 7s 36 47 mph 1009.6mb 56f 42f
2:00pm 9.5ft 6s 36 45 mph 1010.3mb 56f 42f
1:00pm 9ft 7s 34 45 mph 1011.2mb 56f 42f
12:00pm 9ft 7s 36 43 mph 1012.6mb 56f 42f
11:00am 9ft 7s 36 45 mph 1013.4mb 56f 41f
10:00am 8.5ft 6s 36 45 mph 1014mb 56f 40f
9:00am 8ft 6s 34 40 mph 1015mb 56f 40f
8:00am 8ft 7s 31 36 mph 1015.4mb 56f 41f
7:00am 7ft 6s 31 36 mph 1016.1mb 56f 41f
6:00am 7.5ft 7s 29 36 mph 1017.1mb 56f 41f
5:00am 8ft 6s 29 36 mph 1017.8mb 55f 41f
4:00am 8ft 6s 29 36 mph 1018.4mb 56f 41f
3:00am 7ft 6s 29 36 mph 1019.5mb 55f 41f
2:00am 6.5ft 6s 29 34 mph 1020.5mb 55f 41f
1:00am 6.5ft 13s 27 31 mph 1021.2mb 55f 41f
12:00am 6ft 6s 27 31 mph 1022mb 55f 40f
Wed 12/07 11:00pm 6ft 14s 27 31 mph 1022.9mb 55f 40f
10:00pm 6ft 5s 22 29 mph 1023.9mb 55f 40f
9:00pm 6ft 5s 27 31 mph 1024.1mb 55f 40f
8:00pm 6ft 14s 27 36 mph 1024.7mb 55f 39f
7:00pm 6ft 5s 25 31 mph 1025.5mb 55f 39f
6:00pm 5ft 5s 25 31 mph 1025.9mb 55f 39f
5:00pm 5ft 5s 22 29 mph 1026.7mb 56f 40f
4:00pm 5ft 6s 22 27 mph 1027.4mb 56f 40f
3:00pm 5.5ft 14s 22 27 mph 1027.6mb 56f 40f
2:00pm 5ft 14s 22 27 mph 1027.9mb 56f 40f
1:00pm 5.5ft 6s 25 29 mph 1028.5mb 56f 40f
12:00pm 6ft 6s 25 29 mph 1029.3mb 56f 40f
11:00am 6ft 6s 25 31 mph 1029.6mb 55f 39f
10:00am 6ft 6s 22 29 mph 1029.8mb 56f 39f
9:00am 6ft 10s 27 31 mph 1029.2mb 55f 39f
8:00am 6ft 6s 25 31 mph 1029.1mb 55f 39f
7:00am 6ft 5s 25 31 mph 1028.8mb 55f 40f
6:00am 6ft 10s 25 31 mph 1028.8mb 55f 40f
5:00am 6ft 6s 25 29 mph 1028.7mb 55f 40f
4:00am 6ft 5s 22 29 mph 1028.7mb 55f 40f
3:00am 6ft 9s 22 27 mph 1028.7mb 55f 41f
2:00am  -   -  22
mph
1028.5mb - 41f
1:00am 6ft 10s 20 27 mph 1028.1mb 55f 42f
12:00am 6.5ft 11s 22 27 mph 1027.6mb 55f 42f
Tue 12/06 11:00pm 6.5ft 10s 22 27 mph 1027mb 55f 42f
10:00pm 6.5ft 12s 22 29 mph 1026.2mb 55f 42f
9:00pm 6.5ft 11s 18 25 mph 1025.8mb 55f 43f
7:00pm 7ft 10s 18 20 mph 1024.7mb 55f 43f
6:00pm 7ft 10s 11 18 mph 1024.6mb 54f 43f
4:00pm 7.5ft 11s 7 13 mph 1024.1mb 54f 41f
3:00pm 7ft 12s 11 13 mph 1023.8mb 55f 40f